GSE Systems ROE 2010-2024 | GVP

Current and historical return on equity (ROE) values for GSE Systems (GVP) over the last 10 years. Return on equity can be defined as the amount of net income returned as a percentage of shareholders equity. Return on equity measures a corporation's profitability by revealing how much profit a company generates with the money shareholders have invested.
GSE Systems ROE - Return on Equity Historical Data
Date TTM Net Income Shareholder's Equity Return on Equity
2024-03-31 $-0.01B $0.00B -121.74%
2023-12-31 $-0.01B $0.01B -118.52%
2023-09-30 $-0.01B $0.01B -100.00%
2023-06-30 $-0.02B $0.01B -162.16%
2023-03-31 $-0.02B $0.01B -125.00%
2022-12-31 $-0.02B $0.01B -100.00%
2022-09-30 $-0.02B $0.01B -82.19%
2022-06-30 $0.01B $0.02B 22.99%
2022-03-31 $0.01B $0.02B 44.44%
2021-12-31 $0.01B $0.02B 57.14%
2021-09-30 $0.01B $0.03B 75.86%
2021-06-30 $-0.00B $0.01B -9.09%
2021-03-31 $-0.01B $0.01B -55.81%
2020-12-31 $-0.01B $0.01B -83.33%
2020-09-30 $-0.02B $0.01B -105.26%
2020-06-30 $-0.02B $0.01B -82.19%
2020-03-31 $-0.01B $0.01B -58.43%
2019-12-31 $-0.01B $0.02B -43.14%
2019-09-30 $-0.00B $0.03B -14.16%
2019-06-30 $-0.00B $0.03B -13.79%
2019-03-31 $-0.00B $0.03B -10.17%
2018-12-31 $0.00B $0.03B 0.00%
2018-09-30 $0.01B $0.03B 20.17%
2018-06-30 $0.01B $0.03B 21.43%
2018-03-31 $0.01B $0.03B 23.08%
2017-12-31 $0.01B $0.03B 29.17%
2017-09-30 $0.00B $0.02B 4.60%
2017-06-30 $0.00B $0.02B 9.52%
2017-03-31 $0.00B $0.02B 4.94%
2016-12-31 $0.00B $0.02B 5.06%
2016-09-30 $0.00B $0.02B 5.26%
2016-06-30 $-0.00B $0.02B -16.22%
2016-03-31 $-0.00B $0.02B -20.78%
2015-12-31 $-0.00B $0.02B -19.75%
2015-09-30 $-0.01B $0.02B -27.91%
2015-06-30 $-0.00B $0.02B -17.20%
2015-03-31 $-0.01B $0.02B -20.41%
2014-12-31 $-0.01B $0.02B -26.92%
2014-09-30 $-0.01B $0.03B -21.62%
2014-06-30 $-0.01B $0.03B -17.09%
2014-03-31 $-0.01B $0.03B -36.36%
2013-12-31 $-0.01B $0.03B -30.30%
2013-09-30 $-0.01B $0.03B -27.97%
2013-06-30 $-0.01B $0.03B -20.92%
2013-03-31 $0.00B $0.04B 0.00%
2012-12-31 $0.00B $0.04B 4.94%
2012-09-30 $0.00B $0.04B 7.50%
2012-06-30 $0.00B $0.04B 7.64%
2012-03-31 $0.00B $0.04B 7.74%
2011-12-31 $0.00B $0.04B 7.79%
2011-09-30 $-0.00B $0.04B -2.63%
2011-06-30 $-0.00B $0.04B -7.84%
2011-03-31 $-0.00B $0.04B -7.79%
2010-12-31 $-0.00B $0.04B -10.46%
2010-09-30 $-0.00B $0.04B -7.84%
2010-06-30 $-0.00B $0.04B -5.23%
2010-03-31 $-0.00B $0.04B -2.94%
2009-12-31 $-0.00B $0.04B -3.36%
Sector Industry Market Cap Revenue
Computer and Technology Computer Software $0.011B $0.045B
GSE Systems, Inc. develops and delivers business and technology solutions by applying process control and simulation software, systems and services to the pharmaceutical and chemical research & development, energy, process and manufacturing industries worldwide. The company's products are used in the following industries: specialty chemical, food and beverage, petroleum refining, pharmaceutical, fossil and nuclear power generation, metals and water treatment. (PRESS RELEASE)
Stock Name Country Market Cap PE Ratio
Microsoft (MSFT) United States $3188.757B 37.15
Oracle (ORCL) United States $342.546B 27.88
Salesforce (CRM) United States $274.680B 45.92
Adobe (ADBE) United States $215.869B 36.09
Intuit (INTU) United States $186.990B 62.71
Synopsys (SNPS) United States $87.158B 62.88
Cadence Design Systems (CDNS) United States $78.946B 75.15
Dassault Systemes SA (DASTY) France $55.970B 36.36
Autodesk (ADSK) United States $47.465B 46.38
MicroStrategy (MSTR) United States $29.363B 0.00
ANSYS (ANSS) United States $28.529B 52.79
PTC (PTC) United States $21.866B 57.99
SS&C Technologies Holdings (SSNC) United States $15.663B 14.83
Manhattan Associates (MANH) United States $13.894B 73.75
Open Text (OTEX) Canada $8.440B 8.50
Descartes Systems Group (DSGX) Canada $8.404B 73.56
Trend Micro (TMICY) Japan $6.677B 48.36
Pegasystems (PEGA) United States $5.252B 46.44
CommVault Systems (CVLT) United States $4.805B 78.51
Blackbaud (BLKB) United States $4.126B 35.52
ACI Worldwide (ACIW) United States $3.904B 18.56
Progress Software (PRGS) United States $2.218B 14.10
Verint Systems (VRNT) United States $1.979B 18.45
Sapiens (SPNS) Israel $1.902B 25.94
BlackBerry (BB) Canada $1.747B 0.00
PROS Holdings (PRO) United States $1.480B 0.00
Simulations Plus (SLP) United States $0.987B 72.66
Rand Worldwide (RWWI) United States $0.647B 0.00
Magic Software Enterprises (MGIC) Israel $0.532B 11.28
American Software (AMSWA) United States $0.352B 29.44
Canaan (CAN) China $0.251B 0.00
OptimizeRx (OPRX) United States $0.236B 0.00
Rigetti Computing (RGTI) United States $0.175B 0.00
Icad Inc (ICAD) United States $0.043B 0.00
Neonode (NEON) Sweden $0.037B 0.00
NetSol Technologies (NTWK) United States $0.031B 0.00
Smith Micro Software (SMSI) United States $0.026B 0.00
Wetouch Technology (WETH) $0.023B 0.00
Hanryu Holdings (HRYU) South Korea $0.022B 0.00
SAP SE (SAP) Germany $0.000B 49.80